createdAt,value
2023-04-18T00:02:03.588Z,2.40
2023-04-18T00:04:30.846Z,2.67
2023-04-18T00:06:57.865Z,2.80
2023-04-18T00:09:25.237Z,2.30
2023-04-18T00:11:55.172Z,3.30
2023-04-18T00:14:24.936Z,2.58
2023-04-18T00:16:54.206Z,2.20
2023-04-18T00:19:21.594Z,2.70
2023-04-18T00:21:53.344Z,2.33
2023-04-18T00:24:20.350Z,2.53
2023-04-18T00:26:47.405Z,3.10
2023-04-18T00:29:16.551Z,2.67
2023-04-18T00:31:43.695Z,3.22
2023-04-18T00:34:10.678Z,3.13
2023-04-18T00:36:40.147Z,2.70
2023-04-18T00:39:09.399Z,2.75
2023-04-18T00:41:36.320Z,2.85
2023-04-18T00:44:03.164Z,3.03
2023-04-18T00:46:32.301Z,3.85
2023-04-18T00:49:02.099Z,3.83
2023-04-18T00:51:29.488Z,4.18
2023-04-18T00:53:56.995Z,3.85
2023-04-18T00:56:26.462Z,3.30
2023-04-18T00:58:53.859Z,3.80
2023-04-18T01:01:21.800Z,3.53
2023-04-18T01:03:51.225Z,3.58
2023-04-18T01:06:25.885Z,4.53
2023-04-18T01:08:56.351Z,3.97
2023-04-18T01:11:23.221Z,3.47
2023-04-18T01:14:11.287Z,3.75
2023-04-18T01:16:38.889Z,4.05
2023-04-18T01:19:06.018Z,4.15
2023-04-18T01:21:37.375Z,4.55
2023-04-18T01:26:35.835Z,5.13
2023-04-18T01:29:05.742Z,4.18
2023-04-18T01:31:38.019Z,4.15
2023-04-18T01:34:06.193Z,4.95
2023-04-18T01:36:34.143Z,4.10
2023-04-18T01:39:01.131Z,5.57
2023-04-18T01:41:33.188Z,4.70
2023-04-18T01:44:02.808Z,4.72
2023-04-18T01:46:32.268Z,5.70
2023-04-18T01:48:59.781Z,4.85
2023-04-18T01:51:27.938Z,5.18
2023-04-18T01:53:55.026Z,5.68
2023-04-18T01:56:21.895Z,5.50
2023-04-18T01:58:51.790Z,5.35
2023-04-18T02:01:21.308Z,4.82
2023-04-18T02:03:48.425Z,5.28
2023-04-18T02:06:18.226Z,6.25
2023-04-18T02:08:45.188Z,4.35
2023-04-18T02:11:14.277Z,4.63
2023-04-18T02:13:41.269Z,4.80
2023-04-18T02:16:17.009Z,4.20
2023-04-18T02:18:46.693Z,4.07
2023-04-18T02:21:13.504Z,4.57
2023-04-18T02:23:40.558Z,3.97
2023-04-18T02:26:07.455Z,4.07
2023-04-18T02:28:39.330Z,4.90
2023-04-18T02:31:07.323Z,5.07
2023-04-18T02:33:34.186Z,4.25
2023-04-18T02:36:01.841Z,4.78
2023-04-18T02:38:28.704Z,4.50
2023-04-18T02:40:56.049Z,5.28
2023-04-18T02:43:23.019Z,5.78
2023-04-18T02:45:49.990Z,5.40
2023-04-18T02:48:16.940Z,5.72
2023-04-18T02:50:47.747Z,9.27
2023-04-18T02:53:14.881Z,5.82
2023-04-18T02:55:42.363Z,5.53
2023-04-18T02:58:09.393Z,5.35
2023-04-18T03:00:37.053Z,5.93
2023-04-18T03:03:04.134Z,6.18
2023-04-18T03:05:31.144Z,5.15
2023-04-18T03:08:02.957Z,6.00
2023-04-18T03:10:29.866Z,9.10
2023-04-18T03:12:56.932Z,6.25
2023-04-18T03:15:28.568Z,6.65
2023-04-18T03:20:24.759Z,7.25
2023-04-18T03:22:54.134Z,6.80
2023-04-18T03:25:23.588Z,6.18
2023-04-18T03:27:50.510Z,7.88
2023-04-18T03:30:21.602Z,8.35
2023-04-18T03:32:52.808Z,7.40
2023-04-18T03:35:20.284Z,6.93
2023-04-18T03:37:47.529Z,7.88
2023-04-18T03:40:14.603Z,6.95
2023-04-18T03:42:41.539Z,6.35
2023-04-18T03:45:13.614Z,6.63
2023-04-18T03:47:40.802Z,6.05
2023-04-18T03:50:10.627Z,6.68
2023-04-18T03:52:37.545Z,6.57
2023-04-18T03:55:05.097Z,8.23
2023-04-18T03:57:32.005Z,7.50
2023-04-18T03:59:59.330Z,6.40
2023-04-18T04:02:26.315Z,8.18
2023-04-18T04:04:53.559Z,8.15
2023-04-18T04:07:20.741Z,7.88
2023-04-18T04:09:50.283Z,8.32
2023-04-18T04:12:17.249Z,7.68
2023-04-18T04:14:44.171Z,7.00
2023-04-18T04:17:11.147Z,8.05
2023-04-18T04:19:38.000Z,7.40
2023-04-18T04:22:04.922Z,7.68
2023-04-18T04:24:33.264Z,7.55
2023-04-18T04:27:01.395Z,7.28
2023-04-18T04:29:31.390Z,7.28
2023-04-18T04:31:59.575Z,6.43
2023-04-18T04:34:31.685Z,7.10
2023-04-18T04:37:01.433Z,6.70
2023-04-18T04:39:30.775Z,8.07
2023-04-18T04:41:57.691Z,7.45
2023-04-18T04:44:26.902Z,7.22
2023-04-18T04:46:56.150Z,7.18
2023-04-18T04:49:23.403Z,6.95
2023-04-18T04:51:52.576Z,8.15
2023-04-18T04:54:22.397Z,8.30
2023-04-18T04:56:49.332Z,8.57
2023-04-18T04:59:16.391Z,6.97
2023-04-18T05:01:43.453Z,6.90
2023-04-18T05:04:10.464Z,7.50
2023-04-18T05:06:40.041Z,7.65
2023-04-18T05:09:11.474Z,7.43
2023-04-18T05:11:40.490Z,7.45
2023-04-18T05:14:07.544Z,7.60
2023-04-18T05:16:40.021Z,6.70
2023-04-18T05:19:07.028Z,7.38
2023-04-18T05:21:36.490Z,7.88
2023-04-18T05:24:03.420Z,7.25
2023-04-18T05:26:30.433Z,6.88
2023-04-18T05:28:57.499Z,6.65
2023-04-18T05:31:29.834Z,7.28
2023-04-18T05:33:56.798Z,6.60
2023-04-18T05:36:23.819Z,8.32
2023-04-18T05:38:50.892Z,10.75
2023-04-18T05:41:17.839Z,9.80
2023-04-18T05:43:58.201Z,7.85
2023-04-18T05:46:32.516Z,7.68
2023-04-18T05:48:59.638Z,8.18
2023-04-18T05:51:26.784Z,8.20
2023-04-18T05:53:58.615Z,6.95
2023-04-18T05:56:30.497Z,7.15
2023-04-18T05:58:57.369Z,6.57
2023-04-18T06:01:24.310Z,6.60
2023-04-18T06:03:53.969Z,7.85
2023-04-18T06:06:24.090Z,10.57
2023-04-18T06:08:53.943Z,7.55
2023-04-18T06:11:21.224Z,6.85
2023-04-18T06:13:48.253Z,8.85
2023-04-18T06:16:15.372Z,7.60
2023-04-18T06:18:44.511Z,8.63
2023-04-18T06:21:11.420Z,7.70
2023-04-18T06:23:40.790Z,7.78
2023-04-18T06:26:07.773Z,8.82
2023-04-18T06:28:37.289Z,7.75
2023-04-18T06:31:04.303Z,7.75
2023-04-18T06:33:33.769Z,8.25
2023-04-18T06:36:02.808Z,6.90
2023-04-18T06:38:32.408Z,7.28
2023-04-18T06:40:59.355Z,7.70
2023-04-18T06:43:26.283Z,11.80
2023-04-18T06:45:53.325Z,8.50
2023-04-18T06:48:20.276Z,8.15
2023-04-18T06:50:47.183Z,7.15
2023-04-18T06:53:17.043Z,7.45
2023-04-18T06:55:46.484Z,8.63
2023-04-18T06:58:16.024Z,7.40
2023-04-18T07:00:48.826Z,6.57
2023-04-18T07:03:16.092Z,8.93
2023-04-18T07:05:43.141Z,9.15
2023-04-18T07:08:10.029Z,7.47
2023-04-18T07:10:36.978Z,9.05
2023-04-18T07:13:06.880Z,8.23
2023-04-18T07:15:35.832Z,6.78
2023-04-18T07:18:04.257Z,8.43
2023-04-18T07:20:31.218Z,9.13
2023-04-18T07:23:02.442Z,8.48
2023-04-18T07:25:31.641Z,10.05
2023-04-18T07:28:00.779Z,8.45
2023-04-18T07:30:27.761Z,9.10
2023-04-18T07:32:57.075Z,10.70
2023-04-18T07:35:23.979Z,10.02
2023-04-18T07:37:50.941Z,11.20
2023-04-18T07:40:17.996Z,10.02
2023-04-18T07:42:47.054Z,10.20
2023-04-18T07:45:15.501Z,11.32
2023-04-18T07:47:42.432Z,11.15
2023-04-18T07:50:14.074Z,10.32
2023-04-18T07:55:08.481Z,12.15
2023-04-18T07:57:35.408Z,11.30
2023-04-18T08:00:02.414Z,13.00
2023-04-18T08:02:31.708Z,13.30
2023-04-18T08:04:58.895Z,13.07
2023-04-18T08:07:25.845Z,12.98
2023-04-18T08:09:52.771Z,12.93
2023-04-18T08:12:21.986Z,11.55
2023-04-18T08:14:51.396Z,12.02
2023-04-18T08:17:20.838Z,12.02
2023-04-18T08:19:47.705Z,14.23
2023-04-18T08:22:14.682Z,12.30
2023-04-18T08:24:46.388Z,10.98
2023-04-18T08:27:18.125Z,11.45
2023-04-18T08:29:45.065Z,12.45
2023-04-18T08:32:14.175Z,10.93
2023-04-18T08:34:43.618Z,10.93
2023-04-18T08:37:11.002Z,13.88
2023-04-18T08:39:37.859Z,10.73
2023-04-18T08:42:06.500Z,13.30
2023-04-18T08:44:34.277Z,14.57
2023-04-18T08:47:01.970Z,11.98
2023-04-18T08:49:28.915Z,14.15
2023-04-18T08:51:58.356Z,13.32
2023-04-18T08:54:30.472Z,13.15
2023-04-18T08:57:09.178Z,14.07
2023-04-18T08:59:36.529Z,14.13
2023-04-18T09:02:10.215Z,12.05
2023-04-18T09:04:43.188Z,12.30
2023-04-18T09:07:14.129Z,13.27
2023-04-18T09:09:46.359Z,14.10
2023-04-18T09:12:22.419Z,14.15
2023-04-18T09:15:16.143Z,13.95
2023-04-18T09:17:53.438Z,14.77
2023-04-18T09:20:38.084Z,12.48
2023-04-18T09:23:14.326Z,16.02
2023-04-18T09:25:48.084Z,13.27
2023-04-18T09:28:28.149Z,13.32
2023-04-18T09:31:09.220Z,16.83
2023-04-18T09:33:37.066Z,13.45
2023-04-18T09:36:24.576Z,14.50
2023-04-18T09:38:56.948Z,15.20
2023-04-18T09:41:24.340Z,15.30
2023-04-18T09:44:17.720Z,15.48
2023-04-18T09:46:47.625Z,13.82
2023-04-18T09:49:17.430Z,16.65
2023-04-18T09:51:46.185Z,13.77
2023-04-18T09:54:18.166Z,15.63
2023-04-18T09:56:47.029Z,14.20
2023-04-18T09:59:42.255Z,14.25
2023-04-18T10:02:18.591Z,16.35
2023-04-18T10:04:47.612Z,13.75
2023-04-18T10:07:16.039Z,15.50
2023-04-18T10:09:47.294Z,13.25
2023-04-18T10:12:14.754Z,15.55
2023-04-18T10:14:48.110Z,15.93
2023-04-18T10:17:16.063Z,13.10
2023-04-18T10:19:44.350Z,14.48
2023-04-18T10:22:12.398Z,15.32
2023-04-18T10:24:48.471Z,14.38
2023-04-18T10:27:20.166Z,14.52
2023-04-18T10:29:52.878Z,16.70
2023-04-18T10:32:23.198Z,13.65
2023-04-18T10:34:56.148Z,14.25
2023-04-18T10:37:22.997Z,14.50
2023-04-18T10:39:56.535Z,15.35
2023-04-18T10:42:48.302Z,15.10
2023-04-18T10:47:45.732Z,12.63
2023-04-18T10:50:16.343Z,14.07
2023-04-18T10:52:43.723Z,13.93
2023-04-18T10:55:24.271Z,13.70
2023-04-18T10:57:58.494Z,11.48
2023-04-18T11:00:28.161Z,14.48
2023-04-18T11:03:01.098Z,12.77
2023-04-18T11:05:29.405Z,11.93
2023-04-18T11:07:56.378Z,12.82
2023-04-18T11:10:29.523Z,14.75
2023-04-18T11:12:56.661Z,13.55
2023-04-18T11:15:25.571Z,14.00
2023-04-18T11:18:04.563Z,13.65
2023-04-18T11:20:40.918Z,13.48
2023-04-18T11:23:18.679Z,12.85
2023-04-18T11:25:50.455Z,12.93
2023-04-18T11:28:21.517Z,11.70
2023-04-18T11:30:48.638Z,13.05
2023-04-18T11:33:16.706Z,11.82
2023-04-18T11:35:45.877Z,12.27
2023-04-18T11:38:14.958Z,12.52
2023-04-18T11:40:51.454Z,11.43
2023-04-18T11:43:24.579Z,10.98
2023-04-18T11:45:59.336Z,10.20
2023-04-18T11:48:40.892Z,12.05
2023-04-18T11:51:29.520Z,10.00
2023-04-18T11:53:56.709Z,9.95
2023-04-18T11:56:26.136Z,11.63
2023-04-18T11:58:52.978Z,10.65
2023-04-18T12:01:22.514Z,9.18
2023-04-18T12:04:08.660Z,10.57
2023-04-18T12:06:49.921Z,9.10
2023-04-18T12:09:24.531Z,8.23
2023-04-18T12:12:04.309Z,8.93
2023-04-18T12:14:37.909Z,9.25
2023-04-18T12:17:04.803Z,11.10
2023-04-18T12:19:34.266Z,8.60
2023-04-18T12:22:06.762Z,8.63
2023-04-18T12:24:36.133Z,8.48
2023-04-18T12:27:05.295Z,8.13
2023-04-18T12:29:35.247Z,8.13
2023-04-18T12:32:04.712Z,8.45
2023-04-18T12:34:33.679Z,7.22
2023-04-18T12:37:05.248Z,9.15
2023-04-18T12:41:58.986Z,6.68
2023-04-18T12:44:30.564Z,8.60
2023-04-18T12:49:24.264Z,7.18
2023-04-18T12:51:51.163Z,9.18
2023-04-18T12:54:18.007Z,7.13
2023-04-18T12:56:48.033Z,10.15
2023-04-18T12:59:15.099Z,11.52
2023-04-18T13:01:44.555Z,8.02
2023-04-18T13:04:13.004Z,9.50
2023-04-18T13:06:40.788Z,7.70
2023-04-18T13:09:10.460Z,8.00
2023-04-18T13:11:40.061Z,10.48
2023-04-18T13:14:09.322Z,9.50
2023-04-18T13:16:38.308Z,9.55
2023-04-18T13:19:08.065Z,7.03
2023-04-18T13:21:34.987Z,7.80
2023-04-18T13:24:01.898Z,7.10
2023-04-18T13:26:29.062Z,7.53
2023-04-18T13:28:55.986Z,6.97
2023-04-18T13:31:25.855Z,6.38
2023-04-18T13:33:52.846Z,7.47
2023-04-18T13:36:19.728Z,6.82
2023-04-18T13:38:48.068Z,6.78
2023-04-18T13:41:14.958Z,6.30
2023-04-18T13:43:44.064Z,6.85
2023-04-18T13:46:11.874Z,7.93
2023-04-18T13:48:40.976Z,5.75
2023-04-18T13:51:10.512Z,6.28
2023-04-18T13:53:37.360Z,7.30
2023-04-18T13:56:04.550Z,5.82
2023-04-18T13:58:33.669Z,6.63
2023-04-18T14:01:02.985Z,6.47
2023-04-18T14:03:30.102Z,6.47
2023-04-18T14:05:58.827Z,5.45
2023-04-18T14:08:25.650Z,6.45
2023-04-18T14:10:54.758Z,5.88
2023-04-18T14:13:23.929Z,5.68
2023-04-18T14:15:52.818Z,5.82
2023-04-18T14:18:21.767Z,5.40
2023-04-18T14:20:48.835Z,5.10
2023-04-18T14:23:23.125Z,5.07
2023-04-18T14:25:50.058Z,6.43
2023-04-18T14:28:21.562Z,5.38
2023-04-18T14:33:15.410Z,5.35
2023-04-18T14:35:43.650Z,4.47
2023-04-18T14:38:11.335Z,5.97
2023-04-18T14:40:38.175Z,5.45
2023-04-18T14:43:07.314Z,4.88
2023-04-18T14:45:34.746Z,4.38
2023-04-18T14:48:01.926Z,5.25
2023-04-18T14:50:34.321Z,8.23
2023-04-18T14:53:01.297Z,4.60
2023-04-18T14:55:30.763Z,4.55
2023-04-18T14:57:57.699Z,5.00
2023-04-18T15:00:24.710Z,5.95
2023-04-18T15:02:54.296Z,6.10
2023-04-18T15:05:23.777Z,5.63
2023-04-18T15:07:53.333Z,4.97
2023-04-18T15:10:25.040Z,4.75
2023-04-18T15:12:54.224Z,4.95
2023-04-18T15:15:22.637Z,3.65
2023-04-18T15:17:49.588Z,4.45
2023-04-18T15:20:16.554Z,4.65
2023-04-18T15:22:43.504Z,4.70
2023-04-18T15:25:10.544Z,4.20
2023-04-18T15:27:39.902Z,5.03
2023-04-18T15:30:12.485Z,4.25
2023-04-18T15:32:42.958Z,3.78
2023-04-18T15:35:11.122Z,3.70
2023-04-18T15:37:40.560Z,3.83
2023-04-18T15:40:11.684Z,4.80
2023-04-18T15:42:39.500Z,4.97
2023-04-18T15:45:07.855Z,4.82
2023-04-18T15:47:34.979Z,3.60
2023-04-18T15:50:03.479Z,4.68
2023-04-18T15:52:30.511Z,4.00
2023-04-18T15:55:00.395Z,5.28
2023-04-18T15:57:29.618Z,4.03
2023-04-18T15:59:57.019Z,4.13
2023-04-18T16:02:24.021Z,3.75
